sensor_id;sensor_type;location;lat;lon;timestamp;pressure;altitude;pressure_sealevel;temperature;humidity
69247;BME280;56358;56.328;43.992;2022-10-26T00:00:20;101424.66;;;2.43;54.11
69247;BME280;56358;56.328;43.992;2022-10-26T00:02:21;101427.41;;;2.40;54.32
69247;BME280;56358;56.328;43.992;2022-10-26T00:04:22;101428.25;;;2.41;53.36
69247;BME280;56358;56.328;43.992;2022-10-26T00:06:24;101434.47;;;2.40;52.16
69247;BME280;56358;56.328;43.992;2022-10-26T00:08:26;101438.00;;;2.40;53.90
69247;BME280;56358;56.328;43.992;2022-10-26T00:10:26;101438.06;;;2.37;54.52
69247;BME280;56358;56.328;43.992;2022-10-26T00:12:26;101437.09;;;2.40;54.27
69247;BME280;56358;56.328;43.992;2022-10-26T00:14:27;101438.16;;;2.34;53.55
69247;BME280;56358;56.328;43.992;2022-10-26T00:16:28;101445.25;;;2.33;55.40
69247;BME280;56358;56.328;43.992;2022-10-26T00:18:28;101447.84;;;2.35;54.94
69247;BME280;56358;56.328;43.992;2022-10-26T00:20:29;101446.97;;;2.34;54.85
69247;BME280;56358;56.328;43.992;2022-10-26T00:22:31;101455.78;;;2.35;53.59
69247;BME280;56358;56.328;43.992;2022-10-26T00:24:31;101445.13;;;2.37;54.53
69247;BME280;56358;56.328;43.992;2022-10-26T00:26:32;101447.78;;;2.37;53.66
69247;BME280;56358;56.328;43.992;2022-10-26T00:28:32;101448.63;;;2.39;52.91
69247;BME280;56358;56.328;43.992;2022-10-26T00:30:33;101463.56;;;2.41;54.04
69247;BME280;56358;56.328;43.992;2022-10-26T00:32:33;101454.63;;;2.44;54.63
69247;BME280;56358;56.328;43.992;2022-10-26T00:34:34;101455.53;;;2.44;54.69
69247;BME280;56358;56.328;43.992;2022-10-26T00:36:35;101459.03;;;2.45;54.28
69247;BME280;56358;56.328;43.992;2022-10-26T00:38:36;101455.53;;;2.44;55.83
69247;BME280;56358;56.328;43.992;2022-10-26T00:40:36;101457.28;;;2.44;55.89
69247;BME280;56358;56.328;43.992;2022-10-26T00:42:37;101460.06;;;2.39;56.08
69247;BME280;56358;56.328;43.992;2022-10-26T00:44:53;101453.94;;;2.37;56.29
69247;BME280;56358;56.328;43.992;2022-10-26T00:46:56;101454.03;;;2.34;56.99
69247;BME280;56358;56.328;43.992;2022-10-26T00:48:59;101455.81;;;2.33;56.00
69247;BME280;56358;56.328;43.992;2022-10-26T00:51:02;101468.09;;;2.36;56.02
69247;BME280;56358;56.328;43.992;2022-10-26T00:53:04;101459.22;;;2.37;56.23
69247;BME280;56358;56.328;43.992;2022-10-26T00:55:06;101465.47;;;2.36;56.83
69247;BME280;56358;56.328;43.992;2022-10-26T00:57:07;101451.34;;;2.35;55.26
69247;BME280;56358;56.328;43.992;2022-10-26T00:59:09;101464.56;;;2.35;54.40
69247;BME280;56358;56.328;43.992;2022-10-26T01:01:10;101467.16;;;2.37;55.34
69247;BME280;56358;56.328;43.992;2022-10-26T01:03:11;101464.41;;;2.42;54.97
69247;BME280;56358;56.328;43.992;2022-10-26T01:05:13;101469.66;;;2.43;55.10
69247;BME280;56358;56.328;43.992;2022-10-26T01:07:14;101475.78;;;2.45;55.40
69247;BME280;56358;56.328;43.992;2022-10-26T01:09:15;101471.41;;;2.44;52.40
69247;BME280;56358;56.328;43.992;2022-10-26T01:11:16;101471.31;;;2.47;52.69
69247;BME280;56358;56.328;43.992;2022-10-26T01:13:17;101474.84;;;2.46;52.07
69247;BME280;56358;56.328;43.992;2022-10-26T01:15:19;101478.28;;;2.50;53.13
69247;BME280;56358;56.328;43.992;2022-10-26T01:17:25;101469.34;;;2.54;54.60
69247;BME280;56358;56.328;43.992;2022-10-26T01:21:47;101477.28;;;2.54;53.24
69247;BME280;56358;56.328;43.992;2022-10-26T01:24:05;101468.53;;;2.52;54.87
69247;BME280;56358;56.328;43.992;2022-10-26T01:32:44;101479.19;;;2.49;52.85
69247;BME280;56358;56.328;43.992;2022-10-26T01:34:47;101470.44;;;2.47;53.99
69247;BME280;56358;56.328;43.992;2022-10-26T01:36:55;101475.81;;;2.44;53.54
69247;BME280;56358;56.328;43.992;2022-10-26T01:39:02;101472.41;;;2.40;54.93
69247;BME280;56358;56.328;43.992;2022-10-26T01:43:06;101486.44;;;2.42;55.46
69247;BME280;56358;56.328;43.992;2022-10-26T01:45:08;101481.19;;;2.41;55.33
69247;BME280;56358;56.328;43.992;2022-10-26T01:47:10;101487.38;;;2.41;54.74
69247;BME280;56358;56.328;43.992;2022-10-26T01:49:12;101474.16;;;2.40;53.92
69247;BME280;56358;56.328;43.992;2022-10-26T01:51:14;101480.34;;;2.40;53.93
69247;BME280;56358;56.328;43.992;2022-10-26T01:53:15;101427.53;;;2.04;53.52
69247;BME280;56358;56.328;43.992;2022-10-26T01:57:35;101484.72;;;2.41;54.10
69247;BME280;56358;56.328;43.992;2022-10-26T02:00:10;101489.09;;;2.42;53.27
69247;BME280;56358;56.328;43.992;2022-10-26T02:02:14;101496.13;;;2.43;52.56
69247;BME280;56358;56.328;43.992;2022-10-26T02:12:53;101497.28;;;2.33;54.42
69247;BME280;56358;56.328;43.992;2022-10-26T02:15:21;101491.13;;;2.32;54.41
69247;BME280;56358;56.328;43.992;2022-10-26T02:17:28;101494.63;;;2.34;53.95
69247;BME280;56358;56.328;43.992;2022-10-26T02:19:37;101505.41;;;2.27;54.85
69247;BME280;56358;56.328;43.992;2022-10-26T02:21:43;101506.31;;;2.26;53.55
69247;BME280;56358;56.328;43.992;2022-10-26T02:23:45;101504.50;;;2.26;55.22
69247;BME280;56358;56.328;43.992;2022-10-26T02:25:48;101507.16;;;2.26;55.51
69247;BME280;56358;56.328;43.992;2022-10-26T02:27:50;101499.28;;;2.25;54.02
69247;BME280;56358;56.328;43.992;2022-10-26T02:29:53;101508.09;;;2.25;54.25
69247;BME280;56358;56.328;43.992;2022-10-26T02:31:54;101502.72;;;2.28;54.45
69247;BME280;56358;56.328;43.992;2022-10-26T02:33:56;101512.38;;;2.29;54.33
69247;BME280;56358;56.328;43.992;2022-10-26T02:36:01;101505.34;;;2.28;53.98
69247;BME280;56358;56.328;43.992;2022-10-26T02:38:03;101501.84;;;2.28;53.23
69247;BME280;56358;56.328;43.992;2022-10-26T02:40:06;101515.84;;;2.31;52.60
69247;BME280;56358;56.328;43.992;2022-10-26T02:42:08;101515.78;;;2.34;53.81
69247;BME280;56358;56.328;43.992;2022-10-26T02:46:12;101518.28;;;2.39;53.35
69247;BME280;56358;56.328;43.992;2022-10-26T02:48:14;101519.13;;;2.41;52.84
69247;BME280;56358;56.328;43.992;2022-10-26T02:50:15;101518.16;;;2.44;53.09
69247;BME280;56358;56.328;43.992;2022-10-26T02:52:23;101523.50;;;2.42;53.13
69247;BME280;56358;56.328;43.992;2022-10-26T02:56:29;101523.53;;;2.41;53.95
69247;BME280;56358;56.328;43.992;2022-10-26T02:58:33;101524.50;;;2.38;54.29
69247;BME280;56358;56.328;43.992;2022-10-26T03:00:37;101525.44;;;2.35;55.08
69247;BME280;56358;56.328;43.992;2022-10-26T03:02:38;101527.19;;;2.37;54.60
69247;BME280;56358;56.328;43.992;2022-10-26T03:04:38;101523.63;;;2.38;54.34
69247;BME280;56358;56.328;43.992;2022-10-26T03:06:39;101526.28;;;2.38;53.46
69247;BME280;56358;56.328;43.992;2022-10-26T03:08:39;101523.59;;;2.39;54.34
69247;BME280;56358;56.328;43.992;2022-10-26T03:10:41;101528.94;;;2.38;52.79
69247;BME280;56358;56.328;43.992;2022-10-26T03:12:42;101528.94;;;2.38;54.03
69247;BME280;56358;56.328;43.992;2022-10-26T03:14:43;101529.03;;;2.34;54.83
69247;BME280;56358;56.328;43.992;2022-10-26T03:16:43;101535.16;;;2.35;56.08
69247;BME280;56358;56.328;43.992;2022-10-26T03:18:44;101530.69;;;2.37;55.73
69247;BME280;56358;56.328;43.992;2022-10-26T03:20:44;101536.03;;;2.35;56.25
69247;BME280;56358;56.328;43.992;2022-10-26T03:22:46;101532.63;;;2.32;55.49
69247;BME280;56358;56.328;43.992;2022-10-26T03:24:47;101533.47;;;2.32;55.76
69247;BME280;56358;56.328;43.992;2022-10-26T03:26:47;101534.38;;;2.31;55.85
69247;BME280;56358;56.328;43.992;2022-10-26T03:28:48;101533.47;;;2.32;54.62
69247;BME280;56358;56.328;43.992;2022-10-26T03:30:48;101534.38;;;2.31;53.93
69247;BME280;56358;56.328;43.992;2022-10-26T03:32:48;101544.09;;;2.31;55.31
69247;BME280;56358;56.328;43.992;2022-10-26T03:34:49;101538.91;;;2.28;54.09
69247;BME280;56358;56.328;43.992;2022-10-26T03:36:49;101535.41;;;2.26;52.81
69247;BME280;56358;56.328;43.992;2022-10-26T03:38:50;101539.75;;;2.28;52.18
69247;BME280;56358;56.328;43.992;2022-10-26T03:40:50;101539.72;;;2.30;52.27
69247;BME280;56358;56.328;43.992;2022-10-26T03:42:51;101540.56;;;2.32;52.58
69247;BME280;56358;56.328;43.992;2022-10-26T03:44:51;101540.63;;;2.29;51.30
69247;BME280;56358;56.328;43.992;2022-10-26T03:46:52;101547.75;;;2.27;51.20
69247;BME280;56358;56.328;43.992;2022-10-26T03:48:52;101543.25;;;2.29;51.62
69247;BME280;56358;56.328;43.992;2022-10-26T03:50:56;101545.00;;;2.30;52.12
69247;BME280;56358;56.328;43.992;2022-10-26T03:52:56;101539.66;;;2.31;51.58
69247;BME280;56358;56.328;43.992;2022-10-26T03:54:56;101543.16;;;2.33;51.42
69247;BME280;56358;56.328;43.992;2022-10-26T03:56:57;101546.75;;;2.31;51.58
69247;BME280;56358;56.328;43.992;2022-10-26T03:58:57;101552.09;;;2.29;51.63
69247;BME280;56358;56.328;43.992;2022-10-26T04:00:58;101547.66;;;2.30;51.86
69247;BME280;56358;56.328;43.992;2022-10-26T04:02:58;101562.66;;;2.29;52.15
69247;BME280;56358;56.328;43.992;2022-10-26T04:04:59;101553.78;;;2.30;52.35
69247;BME280;56358;56.328;43.992;2022-10-26T04:06:59;101552.13;;;2.26;52.09
69247;BME280;56358;56.328;43.992;2022-10-26T04:09:00;101564.44;;;2.29;52.36
69247;BME280;56358;56.328;43.992;2022-10-26T04:11:01;101565.22;;;2.32;52.16
69247;BME280;56358;56.328;43.992;2022-10-26T04:13:02;101563.53;;;2.30;52.23
69247;BME280;56358;56.328;43.992;2022-10-26T04:15:03;101569.66;;;2.32;51.25
69247;BME280;56358;56.328;43.992;2022-10-26T04:17:05;101577.69;;;2.27;51.14
69247;BME280;56358;56.328;43.992;2022-10-26T04:19:06;101567.97;;;2.29;50.89
69247;BME280;56358;56.328;43.992;2022-10-26T04:21:06;101574.06;;;2.31;51.46
69247;BME280;56358;56.328;43.992;2022-10-26T04:23:10;101583.75;;;2.32;51.30
69247;BME280;56358;56.328;43.992;2022-10-26T04:25:11;101577.66;;;2.29;50.33
69247;BME280;56358;56.328;43.992;2022-10-26T04:27:12;101577.75;;;2.26;50.60
69247;BME280;56358;56.328;43.992;2022-10-26T04:29:13;101585.56;;;2.30;50.39
69247;BME280;56358;56.328;43.992;2022-10-26T04:31:13;101584.84;;;2.24;49.96
69247;BME280;56358;56.328;43.992;2022-10-26T04:33:14;101584.00;;;2.23;49.83
69247;BME280;56358;56.328;43.992;2022-10-26T04:35:14;101585.72;;;2.24;49.87
69247;BME280;56358;56.328;43.992;2022-10-26T04:37:15;101590.97;;;2.26;49.51
69247;BME280;56358;56.328;43.992;2022-10-26T04:39:15;101585.66;;;2.27;50.06
69247;BME280;56358;56.328;43.992;2022-10-26T04:41:16;101593.66;;;2.24;49.92
69247;BME280;56358;56.328;43.992;2022-10-26T04:43:16;101579.53;;;2.24;49.44
69247;BME280;56358;56.328;43.992;2022-10-26T04:45:16;101589.19;;;2.26;49.48
69247;BME280;56358;56.328;43.992;2022-10-26T04:47:17;101596.31;;;2.24;49.79
69247;BME280;56358;56.328;43.992;2022-10-26T04:49:17;101591.97;;;2.22;49.62
69247;BME280;56358;56.328;43.992;2022-10-26T04:51:18;101597.94;;;2.30;50.08
69247;BME280;56358;56.328;43.992;2022-10-26T04:53:18;101611.91;;;2.35;51.83
69247;BME280;56358;56.328;43.992;2022-10-26T04:55:19;101597.59;;;2.42;52.46
69247;BME280;56358;56.328;43.992;2022-10-26T04:57:19;101603.66;;;2.47;49.72
69247;BME280;56358;56.328;43.992;2022-10-26T04:59:20;101602.69;;;2.50;49.71
69247;BME280;56358;56.328;43.992;2022-10-26T05:01:20;101602.47;;;2.59;50.15
69247;BME280;56358;56.328;43.992;2022-10-26T05:03:21;101606.09;;;2.55;49.29
69247;BME280;56358;56.328;43.992;2022-10-26T05:05:21;101612.16;;;2.60;49.12
69247;BME280;56358;56.328;43.992;2022-10-26T05:07:22;101600.56;;;2.64;49.40
69247;BME280;56358;56.328;43.992;2022-10-26T05:09:22;101598.00;;;2.61;48.47
69247;BME280;56358;56.328;43.992;2022-10-26T05:11:23;101609.50;;;2.60;48.27
69247;BME280;56358;56.328;43.992;2022-10-26T05:13:23;101606.81;;;2.62;48.54
69247;BME280;56358;56.328;43.992;2022-10-26T05:15:24;101611.25;;;2.60;49.19
69247;BME280;56358;56.328;43.992;2022-10-26T05:17:25;101613.00;;;2.61;51.15
69247;BME280;56358;56.328;43.992;2022-10-26T05:19:25;101606.69;;;2.66;50.56
69247;BME280;56358;56.328;43.992;2022-10-26T05:21:26;101610.13;;;2.70;50.49
69247;BME280;56358;56.328;43.992;2022-10-26T05:23:26;101611.81;;;2.73;49.47
69247;BME280;56358;56.328;43.992;2022-10-26T05:25:28;101609.88;;;2.79;48.92
69247;BME280;56358;56.328;43.992;2022-10-26T05:27:28;101605.47;;;2.78;48.18
69247;BME280;56358;56.328;43.992;2022-10-26T05:29:29;101607.97;;;2.84;48.63
69247;BME280;56358;56.328;43.992;2022-10-26T05:31:29;101613.38;;;2.80;48.83
69247;BME280;56358;56.328;43.992;2022-10-26T05:33:30;101614.16;;;2.83;48.58
69247;BME280;56358;56.328;43.992;2022-10-26T05:35:31;101617.72;;;2.82;47.71
69247;BME280;56358;56.328;43.992;2022-10-26T05:37:31;101613.38;;;2.80;47.31
69247;BME280;56358;56.328;43.992;2022-10-26T05:39:32;101615.22;;;2.78;47.07
69247;BME280;56358;56.328;43.992;2022-10-26T05:41:32;101618.81;;;2.75;47.32
69247;BME280;56358;56.328;43.992;2022-10-26T05:43:33;101619.75;;;2.73;47.31
69247;BME280;56358;56.328;43.992;2022-10-26T05:45:33;101617.97;;;2.75;48.12
69247;BME280;56358;56.328;43.992;2022-10-26T05:47:40;101610.81;;;2.77;48.62
69247;BME280;56358;56.328;43.992;2022-10-26T05:49:41;101616.97;;;2.79;47.88
69247;BME280;56358;56.328;43.992;2022-10-26T05:51:41;101615.97;;;2.83;48.11
69247;BME280;56358;56.328;43.992;2022-10-26T05:53:41;101616.91;;;2.80;48.56
69247;BME280;56358;56.328;43.992;2022-10-26T05:55:42;101622.97;;;2.85;48.38
69247;BME280;56358;56.328;43.992;2022-10-26T05:57:43;101630.06;;;2.83;47.81
69247;BME280;56358;56.328;43.992;2022-10-26T05:59:43;101623.78;;;2.88;48.07
69247;BME280;56358;56.328;43.992;2022-10-26T06:02:00;101627.31;;;2.88;48.49
69247;BME280;56358;56.328;43.992;2022-10-26T06:06:06;101630.75;;;2.90;47.70
69247;BME280;56358;56.328;43.992;2022-10-26T06:08:11;101625.59;;;2.85;47.90
69247;BME280;56358;56.328;43.992;2022-10-26T06:10:11;101625.50;;;2.89;48.28
69247;BME280;56358;56.328;43.992;2022-10-26T06:12:13;101631.66;;;2.91;48.51
69247;BME280;56358;56.328;43.992;2022-10-26T06:14:13;101628.91;;;2.94;48.67
69247;BME280;56358;56.328;43.992;2022-10-26T06:31:12;101635.81;;;2.99;48.46
69247;BME280;56358;56.328;43.992;2022-10-26T06:33:13;101644.41;;;3.08;47.94
69247;BME280;56358;56.328;43.992;2022-10-26T06:37:47;101648.38;;;3.24;48.31
69247;BME280;56358;56.328;43.992;2022-10-26T06:39:48;101651.75;;;3.29;47.94
69247;BME280;56358;56.328;43.992;2022-10-26T06:41:49;101649.97;;;3.30;48.28
69247;BME280;56358;56.328;43.992;2022-10-26T06:43:50;101662.22;;;3.34;48.18
69247;BME280;56358;56.328;43.992;2022-10-26T06:45:54;101657.78;;;3.34;47.88
69247;BME280;56358;56.328;43.992;2022-10-26T06:48:07;101662.59;;;3.20;47.80
69247;BME280;56358;56.328;43.992;2022-10-26T06:50:18;101648.75;;;3.10;47.78
69247;BME280;56358;56.328;43.992;2022-10-26T06:56:32;101661.59;;;3.26;48.05
69247;BME280;56358;56.328;43.992;2022-10-26T06:58:33;101653.69;;;3.24;47.84
69247;BME280;56358;56.328;43.992;2022-10-26T07:00:35;101659.97;;;3.20;47.66
69247;BME280;56358;56.328;43.992;2022-10-26T07:02:36;101654.31;;;3.01;48.74
69247;BME280;56358;56.328;43.992;2022-10-26T07:04:36;101656.00;;;3.04;48.60
69247;BME280;56358;56.328;43.992;2022-10-26T07:06:37;101662.91;;;3.09;48.11
69247;BME280;56358;56.328;43.992;2022-10-26T07:08:37;101652.31;;;3.09;47.45
69247;BME280;56358;56.328;43.992;2022-10-26T07:10:38;101647.91;;;3.10;47.63
69247;BME280;56358;56.328;43.992;2022-10-26T07:12:38;101661.00;;;3.14;47.73
69247;BME280;56358;56.328;43.992;2022-10-26T07:14:39;101653.19;;;3.10;47.64
69247;BME280;56358;56.328;43.992;2022-10-26T07:16:40;101652.56;;;3.00;48.01
69247;BME280;56358;56.328;43.992;2022-10-26T07:18:40;101646.34;;;3.01;46.92
69247;BME280;56358;56.328;43.992;2022-10-26T07:20:41;101649.91;;;3.00;47.25
69247;BME280;56358;56.328;43.992;2022-10-26T07:22:41;101655.31;;;2.97;47.30
69247;BME280;56358;56.328;43.992;2022-10-26T07:24:42;101657.84;;;3.01;47.10
69247;BME280;56358;56.328;43.992;2022-10-26T07:26:42;101657.75;;;3.05;47.05
69247;BME280;56358;56.328;43.992;2022-10-26T07:28:43;101651.81;;;2.96;46.76
69247;BME280;56358;56.328;43.992;2022-10-26T07:30:43;101662.22;;;3.02;46.78
69247;BME280;56358;56.328;43.992;2022-10-26T07:32:44;101655.91;;;3.08;46.70
69247;BME280;56358;56.328;43.992;2022-10-26T07:34:44;101658.34;;;3.14;46.99
69247;BME280;56358;56.328;43.992;2022-10-26T07:36:45;101673.44;;;3.12;46.84
69247;BME280;56358;56.328;43.992;2022-10-26T07:38:45;101657.34;;;3.18;47.13
69247;BME280;56358;56.328;43.992;2022-10-26T07:40:45;101667.78;;;3.25;47.48
69247;BME280;56358;56.328;43.992;2022-10-26T07:42:46;101671.31;;;3.25;46.99
69247;BME280;56358;56.328;43.992;2022-10-26T07:44:46;101666.00;;;3.25;46.82
69247;BME280;56358;56.328;43.992;2022-10-26T07:46:47;101667.91;;;3.20;46.87
69247;BME280;56358;56.328;43.992;2022-10-26T07:48:47;101666.25;;;3.16;46.99
69247;BME280;56358;56.328;43.992;2022-10-26T07:50:48;101669.59;;;3.23;47.00
69247;BME280;56358;56.328;43.992;2022-10-26T07:52:48;101664.25;;;3.26;47.09
69247;BME280;56358;56.328;43.992;2022-10-26T07:54:49;101664.34;;;3.21;47.51
69247;BME280;56358;56.328;43.992;2022-10-26T07:56:49;101667.16;;;3.16;48.01
69247;BME280;56358;56.328;43.992;2022-10-26T07:58:53;101662.91;;;3.11;47.69
69247;BME280;56358;56.328;43.992;2022-10-26T08:00:53;101664.75;;;3.07;47.77
69247;BME280;56358;56.328;43.992;2022-10-26T08:02:54;101666.56;;;3.05;47.41
69247;BME280;56358;56.328;43.992;2022-10-26T08:04:55;101666.78;;;2.97;47.79
69247;BME280;56358;56.328;43.992;2022-10-26T08:06:55;101672.09;;;2.96;47.66
69247;BME280;56358;56.328;43.992;2022-10-26T08:08:56;101683.63;;;2.95;47.80
69247;BME280;56358;56.328;43.992;2022-10-26T08:10:57;101678.16;;;3.01;47.50
69247;BME280;56358;56.328;43.992;2022-10-26T08:12:58;101671.84;;;3.05;47.35
69247;BME280;56358;56.328;43.992;2022-10-26T08:14:58;101677.41;;;2.96;47.92
69247;BME280;56358;56.328;43.992;2022-10-26T08:16:58;101675.03;;;2.85;47.85
69247;BME280;56358;56.328;43.992;2022-10-26T08:18:59;101671.38;;;2.91;47.80
69247;BME280;56358;56.328;43.992;2022-10-26T08:21:00;101670.34;;;2.96;48.28
69247;BME280;56358;56.328;43.992;2022-10-26T08:23:01;101678.16;;;3.01;48.16
69247;BME280;56358;56.328;43.992;2022-10-26T08:25:05;101673.75;;;3.01;47.95
69247;BME280;56358;56.328;43.992;2022-10-26T08:27:05;101674.00;;;2.92;48.32
69247;BME280;56358;56.328;43.992;2022-10-26T08:29:06;101672.78;;;3.04;47.82
69247;BME280;56358;56.328;43.992;2022-10-26T08:31:06;101684.28;;;3.03;48.21
69247;BME280;56358;56.328;43.992;2022-10-26T08:33:07;101674.41;;;3.10;47.66
69247;BME280;56358;56.328;43.992;2022-10-26T08:35:10;101674.25;;;3.14;47.84
69247;BME280;56358;56.328;43.992;2022-10-26T08:37:11;101672.31;;;3.21;47.77
69247;BME280;56358;56.328;43.992;2022-10-26T08:39:11;101676.50;;;3.30;47.55
69247;BME280;56358;56.328;43.992;2022-10-26T08:41:12;101673.78;;;3.31;47.61
69247;BME280;56358;56.328;43.992;2022-10-26T08:43:32;101671.84;;;3.38;47.72
69247;BME280;56358;56.328;43.992;2022-10-26T08:45:37;101680.44;;;3.46;47.09
69247;BME280;56358;56.328;43.992;2022-10-26T08:47:42;101669.88;;;3.45;47.49
69247;BME280;56358;56.328;43.992;2022-10-26T08:49:46;101676.66;;;3.55;47.32
69247;BME280;56358;56.328;43.992;2022-10-26T08:51:48;101677.47;;;3.57;46.76
69247;BME280;56358;56.328;43.992;2022-10-26T08:53:53;101675.88;;;3.51;47.05
69247;BME280;56358;56.328;43.992;2022-10-26T08:56:00;101677.56;;;3.54;47.18
69247;BME280;56358;56.328;43.992;2022-10-26T08:58:03;101680.53;;;3.43;46.99
69247;BME280;56358;56.328;43.992;2022-10-26T09:00:22;101672.16;;;3.27;46.89
69247;BME280;56358;56.328;43.992;2022-10-26T09:02:23;101676.44;;;3.31;46.97
69247;BME280;56358;56.328;43.992;2022-10-26T09:04:27;101671.00;;;3.36;46.99
69247;BME280;56358;56.328;43.992;2022-10-26T09:06:36;101675.38;;;3.37;47.22
69247;BME280;56358;56.328;43.992;2022-10-26T09:17:56;101675.59;;;3.61;47.11
69247;BME280;56358;56.328;43.992;2022-10-26T09:26:12;101662.97;;;3.39;47.96
69247;BME280;56358;56.328;43.992;2022-10-26T09:28:14;101671.53;;;3.49;47.65
69247;BME280;56358;56.328;43.992;2022-10-26T09:30:17;101669.19;;;3.38;48.10
69247;BME280;56358;56.328;43.992;2022-10-26T09:36:31;101665.69;;;3.38;48.36
69247;BME280;56358;56.328;43.992;2022-10-26T09:38:33;101673.63;;;3.38;48.08
69247;BME280;56358;56.328;43.992;2022-10-26T09:41:23;101668.34;;;3.36;47.70
69247;BME280;56358;56.328;43.992;2022-10-26T09:42:57;101673.56;;;3.39;47.79
69247;BME280;56358;56.328;43.992;2022-10-26T09:45:02;101683.19;;;3.43;48.11
69247;BME280;56358;56.328;43.992;2022-10-26T09:49:12;101692.59;;;3.53;48.49
69247;BME280;56358;56.328;43.992;2022-10-26T09:51:15;101681.16;;;3.51;48.57
69247;BME280;56358;56.328;43.992;2022-10-26T09:53:15;101679.88;;;3.65;48.46
69247;BME280;56358;56.328;43.992;2022-10-26T09:55:16;101681.47;;;3.71;48.11
69247;BME280;56358;56.328;43.992;2022-10-26T09:57:17;101677.81;;;3.75;47.72
69247;BME280;56358;56.328;43.992;2022-10-26T09:59:19;101685.25;;;3.63;47.07
69247;BME280;56358;56.328;43.992;2022-10-26T10:03:31;101685.47;;;3.56;46.98
69247;BME280;56358;56.328;43.992;2022-10-26T10:05:33;101691.72;;;3.53;47.32
69247;BME280;56358;56.328;43.992;2022-10-26T10:07:33;101636.03;;;3.23;47.32
69247;BME280;56358;56.328;43.992;2022-10-26T10:09:34;101688.66;;;3.67;47.38
69247;BME280;56358;56.328;43.992;2022-10-26T10:13:44;101690.97;;;3.79;47.34
69247;BME280;56358;56.328;43.992;2022-10-26T10:15:56;101688.03;;;3.89;47.23
69247;BME280;56358;56.328;43.992;2022-10-26T10:17:58;101688.66;;;3.97;47.17
69247;BME280;56358;56.328;43.992;2022-10-26T10:20:08;101690.41;;;3.98;47.14
69247;BME280;56358;56.328;43.992;2022-10-26T10:24:30;101695.84;;;3.93;47.59
69247;BME280;56358;56.328;43.992;2022-10-26T10:26:31;101692.41;;;3.90;47.66
69247;BME280;56358;56.328;43.992;2022-10-26T10:28:32;101688.31;;;3.79;47.25
69247;BME280;56358;56.328;43.992;2022-10-26T10:30:33;101684.97;;;3.73;47.37
69247;BME280;56358;56.328;43.992;2022-10-26T10:32:33;101687.16;;;3.58;47.82
69247;BME280;56358;56.328;43.992;2022-10-26T10:34:33;101689.81;;;3.58;48.02
69247;BME280;56358;56.328;43.992;2022-10-26T10:36:35;101684.63;;;3.53;48.55
69247;BME280;56358;56.328;43.992;2022-10-26T10:38:39;101689.66;;;3.63;48.57
69247;BME280;56358;56.328;43.992;2022-10-26T10:40:40;101690.88;;;3.52;48.24
69247;BME280;56358;56.328;43.992;2022-10-26T10:42:49;101685.47;;;3.56;48.72
69247;BME280;56358;56.328;43.992;2022-10-26T10:44:51;101694.53;;;3.47;48.16
69247;BME280;56358;56.328;43.992;2022-10-26T10:47:02;101690.22;;;3.44;48.18
69247;BME280;56358;56.328;43.992;2022-10-26T10:49:04;101695.53;;;3.43;48.54
69247;BME280;56358;56.328;43.992;2022-10-26T10:51:05;101691.13;;;3.43;48.34
69247;BME280;56358;56.328;43.992;2022-10-26T10:53:30;101689.59;;;3.34;48.25
69247;BME280;56358;56.328;43.992;2022-10-26T10:55:34;101699.34;;;3.34;47.91
69247;BME280;56358;56.328;43.992;2022-10-26T10:57:48;101690.19;;;3.13;48.49
69247;BME280;56358;56.328;43.992;2022-10-26T11:02:18;101693.44;;;3.24;48.77
69247;BME280;56358;56.328;43.992;2022-10-26T11:06:24;101694.41;;;3.22;49.29
69247;BME280;56358;56.328;43.992;2022-10-26T11:08:29;101700.50;;;3.24;49.14
69247;BME280;56358;56.328;43.992;2022-10-26T11:10:33;101693.56;;;3.19;49.34
69247;BME280;56358;56.328;43.992;2022-10-26T11:12:43;101692.69;;;3.19;49.38
69247;BME280;56358;56.328;43.992;2022-10-26T11:14:46;101697.91;;;3.22;49.55
69247;BME280;56358;56.328;43.992;2022-10-26T11:16:51;101696.91;;;3.26;49.79
69247;BME280;56358;56.328;43.992;2022-10-26T11:18:56;101696.91;;;3.26;49.81
69247;BME280;56358;56.328;43.992;2022-10-26T11:21:02;101693.19;;;3.32;49.76
69247;BME280;56358;56.328;43.992;2022-10-26T11:23:11;101686.19;;;3.31;49.59
69247;BME280;56358;56.328;43.992;2022-10-26T11:25:17;101696.84;;;3.28;49.54
69247;BME280;56358;56.328;43.992;2022-10-26T11:27:21;101687.03;;;3.31;49.55
69247;BME280;56358;56.328;43.992;2022-10-26T11:29:28;101688.59;;;3.39;49.36
69247;BME280;56358;56.328;43.992;2022-10-26T11:31:32;101692.13;;;3.39;49.11
69247;BME280;56358;56.328;43.992;2022-10-26T11:33:39;101685.63;;;3.49;49.13
69247;BME280;56358;56.328;43.992;2022-10-26T11:35:59;101688.59;;;3.39;48.88
69247;BME280;56358;56.328;43.992;2022-10-26T11:38:13;101690.44;;;3.37;49.06
69247;BME280;56358;56.328;43.992;2022-10-26T11:43:10;101681.13;;;3.22;49.03
69247;BME280;56358;56.328;43.992;2022-10-26T11:47:06;101681.91;;;3.25;49.26
69247;BME280;56358;56.328;43.992;2022-10-26T11:49:16;101679.91;;;3.33;49.33
69247;BME280;56358;56.328;43.992;2022-10-26T11:53:30;101678.00;;;3.39;49.28
69247;BME280;56358;56.328;43.992;2022-10-26T11:55:35;101685.03;;;3.40;48.92
69247;BME280;56358;56.328;43.992;2022-10-26T11:57:36;101673.38;;;3.45;48.87
69247;BME280;56358;56.328;43.992;2022-10-26T11:59:38;101680.53;;;3.43;48.91
69247;BME280;56358;56.328;43.992;2022-10-26T12:01:41;101672.75;;;3.37;49.05
69247;BME280;56358;56.328;43.992;2022-10-26T12:03:46;101675.50;;;3.34;49.11
69247;BME280;56358;56.328;43.992;2022-10-26T12:05:50;101666.59;;;3.37;49.01
69247;BME280;56358;56.328;43.992;2022-10-26T12:08:34;101671.03;;;3.34;49.24
69247;BME280;56358;56.328;43.992;2022-10-26T12:16:57;101666.38;;;3.44;48.88